createdAt,value
2022-11-05T00:02:22.873Z,9.10
2022-11-05T00:05:08.251Z,9.20
2022-11-05T00:07:58.639Z,9.20
2022-11-05T00:10:28.674Z,9.20
2022-11-05T00:13:16.682Z,9.20
2022-11-05T00:16:02.652Z,9.20
2022-11-05T00:18:30.764Z,9.20
2022-11-05T00:20:59.000Z,9.20
2022-11-05T00:23:57.215Z,9.20
2022-11-05T00:26:25.250Z,9.30
2022-11-05T00:28:53.274Z,9.20
2022-11-05T00:31:21.243Z,9.20
2022-11-05T00:33:49.233Z,9.20
2022-11-05T00:36:17.213Z,9.20
2022-11-05T00:38:46.511Z,9.20
2022-11-05T00:41:14.447Z,9.20
2022-11-05T00:43:59.809Z,9.20
2022-11-05T00:46:27.796Z,9.20
2022-11-05T00:49:12.349Z,9.20
2022-11-05T00:51:40.336Z,9.30
2022-11-05T00:54:09.686Z,9.30
2022-11-05T00:56:37.661Z,9.30
2022-11-05T00:59:05.882Z,9.20
2022-11-05T01:01:34.020Z,9.20
2022-11-05T01:04:02.073Z,9.20
2022-11-05T01:06:30.076Z,9.20
2022-11-05T01:08:58.114Z,9.10
2022-11-05T01:11:37.191Z,9.10
2022-11-05T01:14:07.714Z,9.00
2022-11-05T01:16:36.046Z,9.00
2022-11-05T01:19:06.662Z,8.90
2022-11-05T01:21:34.786Z,8.90
2022-11-05T01:24:03.702Z,8.90
2022-11-05T01:26:33.140Z,8.80
2022-11-05T01:29:01.387Z,8.80
2022-11-05T01:31:29.641Z,8.90
2022-11-05T01:33:57.627Z,8.90
2022-11-05T01:36:25.652Z,8.90
2022-11-05T01:38:53.624Z,8.90
2022-11-05T01:41:21.615Z,8.90
2022-11-05T01:43:52.786Z,9.00
2022-11-05T01:46:24.611Z,9.00
2022-11-05T01:49:01.792Z,9.00
2022-11-05T01:51:31.314Z,9.00
2022-11-05T01:54:04.015Z,9.10
2022-11-05T01:56:36.603Z,9.00
2022-11-05T01:59:10.458Z,9.10
2022-11-05T02:01:39.084Z,9.10
2022-11-05T02:04:11.547Z,9.10
2022-11-05T02:06:45.953Z,9.10
2022-11-05T02:09:19.443Z,9.10
2022-11-05T02:11:48.433Z,9.10
2022-11-05T02:14:18.280Z,9.10
2022-11-05T02:16:51.584Z,9.10
2022-11-05T02:19:48.004Z,9.10
2022-11-05T02:22:37.746Z,9.20
2022-11-05T02:25:26.325Z,9.20
2022-11-05T02:28:17.855Z,9.10
2022-11-05T02:30:50.200Z,9.10
2022-11-05T02:33:32.102Z,9.20
2022-11-05T02:36:25.329Z,9.20
2022-11-05T02:39:07.762Z,9.10
2022-11-05T02:41:44.324Z,9.10
2022-11-05T02:44:21.276Z,9.10
2022-11-05T02:46:58.028Z,9.10
2022-11-05T02:49:35.541Z,9.20
2022-11-05T02:52:07.573Z,9.20
2022-11-05T02:54:39.135Z,9.20
2022-11-05T02:57:07.951Z,9.30
2022-11-05T02:59:35.897Z,9.30
2022-11-05T03:02:07.385Z,9.30
2022-11-05T03:04:35.523Z,9.30
2022-11-05T03:07:24.271Z,9.30
2022-11-05T03:10:16.616Z,9.30
2022-11-05T03:12:53.164Z,9.30
2022-11-05T03:15:34.749Z,9.30
2022-11-05T03:18:11.591Z,9.30
2022-11-05T03:20:48.199Z,9.30
2022-11-05T03:23:24.449Z,9.30
2022-11-05T03:25:59.102Z,9.20
2022-11-05T03:28:31.182Z,9.20
2022-11-05T03:31:00.084Z,9.30
2022-11-05T03:33:33.485Z,9.20
2022-11-05T03:36:06.092Z,9.20
2022-11-05T03:38:38.339Z,9.20
2022-11-05T03:41:10.221Z,9.10
2022-11-05T03:43:41.887Z,9.10
2022-11-05T03:46:13.040Z,9.10
2022-11-05T03:48:46.898Z,9.10
2022-11-05T03:51:26.440Z,9.10
2022-11-05T03:53:58.750Z,9.00
2022-11-05T03:56:31.939Z,9.00
2022-11-05T03:59:01.431Z,9.00
2022-11-05T04:01:30.989Z,9.00
2022-11-05T04:04:00.480Z,9.00
2022-11-05T04:06:46.142Z,9.00
2022-11-05T04:09:31.632Z,8.90
2022-11-05T04:12:17.035Z,8.90
2022-11-05T04:14:45.071Z,8.90
2022-11-05T04:17:12.267Z,8.90
2022-11-05T04:20:00.645Z,8.90
2022-11-05T04:22:48.548Z,8.90
2022-11-05T04:25:17.962Z,8.90
2022-11-05T04:27:46.922Z,8.90
2022-11-05T04:30:21.945Z,8.90
2022-11-05T04:33:04.533Z,8.90
2022-11-05T04:35:35.931Z,8.90
2022-11-05T04:38:04.734Z,8.90
2022-11-05T04:40:32.946Z,8.90
2022-11-05T04:43:01.246Z,8.90
2022-11-05T04:45:30.952Z,8.80
2022-11-05T04:47:58.978Z,8.80
2022-11-05T04:50:27.569Z,8.80
2022-11-05T04:52:56.940Z,8.90
2022-11-05T04:55:25.476Z,8.90
2022-11-05T04:57:54.954Z,8.90
2022-11-05T05:00:24.464Z,8.90
2022-11-05T05:02:52.470Z,8.90
2022-11-05T05:05:21.292Z,8.90
2022-11-05T05:07:49.295Z,8.80
2022-11-05T05:10:18.703Z,8.80
2022-11-05T05:12:46.694Z,8.80
2022-11-05T05:15:14.790Z,8.90
2022-11-05T05:17:42.752Z,8.90
2022-11-05T05:20:28.361Z,8.90
2022-11-05T05:22:57.098Z,8.90
2022-11-05T05:25:26.594Z,8.90
2022-11-05T05:27:57.213Z,8.90
2022-11-05T05:30:25.369Z,8.90
2022-11-05T05:32:53.329Z,8.80
2022-11-05T05:35:21.311Z,8.90
2022-11-05T05:37:49.333Z,8.90
2022-11-05T05:40:17.567Z,8.90
2022-11-05T05:42:46.901Z,8.90
2022-11-05T05:45:14.964Z,8.90
2022-11-05T05:47:42.970Z,8.90
2022-11-05T05:50:10.993Z,8.80
2022-11-05T05:52:39.031Z,8.90
2022-11-05T05:55:07.617Z,8.90
2022-11-05T05:57:36.189Z,8.90
2022-11-05T06:00:07.107Z,8.90
2022-11-05T06:02:35.284Z,9.00
2022-11-05T06:05:03.413Z,9.00
2022-11-05T06:07:36.839Z,9.00
2022-11-05T06:10:06.218Z,9.00
2022-11-05T06:12:34.229Z,8.90
2022-11-05T06:15:02.302Z,9.00
2022-11-05T06:17:31.636Z,9.00
2022-11-05T06:19:59.571Z,8.90
2022-11-05T06:22:27.588Z,9.00
2022-11-05T06:24:55.650Z,8.90
2022-11-05T06:27:23.765Z,9.00
2022-11-05T06:29:51.785Z,8.90
2022-11-05T06:32:19.787Z,8.90
2022-11-05T06:34:49.158Z,8.90
2022-11-05T06:37:17.151Z,8.80
2022-11-05T06:39:45.169Z,8.80
2022-11-05T06:42:20.284Z,8.70
2022-11-05T06:44:48.331Z,8.70
2022-11-05T06:47:16.275Z,8.70
2022-11-05T06:49:44.238Z,8.70
2022-11-05T06:52:14.604Z,8.70
2022-11-05T06:54:43.866Z,8.70
2022-11-05T06:57:12.975Z,8.70
2022-11-05T06:59:41.326Z,8.70
2022-11-05T07:02:12.796Z,8.70
2022-11-05T07:04:40.908Z,8.70
2022-11-05T07:07:08.895Z,8.80
2022-11-05T07:09:40.540Z,8.90
2022-11-05T07:12:09.011Z,8.90
2022-11-05T07:14:37.135Z,9.00
2022-11-05T07:17:05.344Z,9.00
2022-11-05T07:19:34.485Z,9.00
2022-11-05T07:22:02.456Z,9.00
2022-11-05T07:24:30.471Z,9.10
2022-11-05T07:26:59.849Z,9.10
2022-11-05T07:29:27.883Z,9.10
2022-11-05T07:31:55.951Z,9.10
2022-11-05T07:34:24.018Z,9.10
2022-11-05T07:36:52.087Z,9.20
2022-11-05T07:39:20.099Z,9.20
2022-11-05T07:41:48.142Z,9.20
2022-11-05T07:44:17.691Z,9.30
2022-11-05T07:46:45.683Z,9.30
2022-11-05T07:49:13.683Z,9.30
2022-11-05T07:51:41.655Z,9.30
2022-11-05T07:54:09.749Z,9.20
2022-11-05T07:56:37.808Z,9.20
2022-11-05T07:59:06.112Z,9.20
2022-11-05T08:01:35.564Z,9.20
2022-11-05T08:04:03.701Z,9.20
2022-11-05T08:06:32.360Z,9.20
2022-11-05T08:09:00.329Z,9.30
2022-11-05T08:11:28.296Z,9.20
2022-11-05T08:13:56.259Z,9.10
2022-11-05T08:16:24.264Z,9.00
2022-11-05T08:18:53.662Z,8.90
2022-11-05T08:21:21.614Z,8.90
2022-11-05T08:23:49.708Z,8.90
2022-11-05T08:26:17.737Z,8.80
2022-11-05T08:28:45.859Z,8.70
2022-11-05T08:31:15.311Z,8.60
2022-11-05T08:33:43.765Z,8.50
2022-11-05T08:36:13.255Z,8.50
2022-11-05T08:38:41.202Z,8.50
2022-11-05T08:41:09.135Z,8.40
2022-11-05T08:43:37.129Z,8.40
2022-11-05T08:46:05.188Z,8.40
2022-11-05T08:48:33.201Z,8.50
2022-11-05T08:51:01.890Z,8.60
2022-11-05T08:53:31.235Z,8.70
2022-11-05T08:56:00.630Z,8.70
2022-11-05T08:58:28.808Z,8.70
2022-11-05T09:01:01.769Z,8.70
2022-11-05T09:03:31.505Z,8.80
2022-11-05T09:05:59.553Z,8.80
2022-11-05T09:08:27.504Z,8.90
2022-11-05T09:10:56.933Z,8.90
2022-11-05T09:13:25.861Z,8.90
2022-11-05T09:15:54.271Z,8.90
2022-11-05T09:18:22.341Z,8.90
2022-11-05T09:20:50.303Z,9.00
2022-11-05T09:23:18.501Z,9.00
2022-11-05T09:25:46.770Z,9.00
2022-11-05T09:28:17.624Z,8.90
2022-11-05T09:30:48.038Z,8.90
2022-11-05T09:33:17.224Z,9.00
2022-11-05T09:35:45.537Z,9.00
2022-11-05T09:38:14.030Z,8.90
2022-11-05T09:40:48.612Z,8.90
2022-11-05T09:43:21.395Z,8.90
2022-11-05T09:45:53.095Z,8.90
2022-11-05T09:48:25.649Z,8.90
2022-11-05T09:50:55.500Z,8.90
2022-11-05T09:53:25.444Z,8.90
2022-11-05T09:55:56.967Z,9.00
2022-11-05T09:58:40.266Z,9.10
2022-11-05T10:01:13.315Z,9.10
2022-11-05T10:03:50.978Z,9.20
2022-11-05T10:06:22.740Z,9.10
2022-11-05T10:08:55.607Z,9.10
2022-11-05T10:11:31.527Z,9.10
2022-11-05T10:14:08.367Z,9.10
2022-11-05T10:16:40.697Z,9.20
2022-11-05T10:19:13.957Z,9.20
2022-11-05T10:22:05.641Z,9.20
2022-11-05T10:24:31.144Z,9.30
2022-11-05T10:26:59.589Z,9.30
2022-11-05T10:29:32.635Z,9.30
2022-11-05T10:32:05.487Z,9.30
2022-11-05T10:34:35.300Z,9.30
2022-11-05T10:37:03.658Z,9.40
2022-11-05T10:39:33.575Z,9.40
2022-11-05T10:42:20.098Z,9.40
2022-11-05T10:44:57.836Z,9.50
2022-11-05T10:47:49.940Z,9.60
2022-11-05T10:50:20.654Z,9.90
2022-11-05T10:52:57.952Z,10.20
2022-11-05T10:55:29.207Z,10.00
2022-11-05T10:58:09.479Z,10.10
2022-11-05T11:00:39.219Z,10.20
2022-11-05T11:03:29.386Z,10.30
2022-11-05T11:06:00.982Z,10.60
2022-11-05T11:08:29.560Z,10.60
2022-11-05T11:11:00.052Z,11.00
2022-11-05T11:13:30.161Z,11.20
2022-11-05T11:16:16.027Z,11.30
2022-11-05T11:18:45.472Z,11.40
2022-11-05T11:21:15.891Z,11.30
2022-11-05T11:23:54.080Z,11.10
2022-11-05T11:26:24.494Z,10.80
2022-11-05T11:28:58.906Z,11.10
2022-11-05T11:31:30.301Z,11.20
2022-11-05T11:34:02.154Z,10.90
2022-11-05T11:36:36.130Z,11.20
2022-11-05T11:39:06.463Z,11.40
2022-11-05T11:41:38.466Z,11.70
2022-11-05T11:44:12.356Z,11.70
2022-11-05T11:46:42.499Z,11.70
2022-11-05T11:49:31.856Z,11.60
2022-11-05T11:52:04.240Z,11.60
2022-11-05T11:54:34.702Z,11.50
2022-11-05T11:57:03.081Z,11.50
2022-11-05T12:00:01.888Z,11.30
2022-11-05T12:02:47.640Z,11.20
2022-11-05T12:05:26.557Z,11.20
2022-11-05T12:07:57.914Z,11.30
2022-11-05T12:10:45.463Z,11.50
2022-11-05T12:13:51.170Z,11.90
2022-11-05T12:16:27.881Z,12.00
2022-11-05T12:19:06.377Z,12.00
2022-11-05T12:21:52.491Z,12.10
2022-11-05T12:24:46.212Z,12.20
2022-11-05T12:27:24.480Z,12.00
2022-11-05T12:29:59.113Z,12.10
2022-11-05T12:33:04.342Z,12.00
2022-11-05T12:35:48.977Z,12.00
2022-11-05T12:38:31.076Z,11.80
2022-11-05T12:41:12.851Z,11.30
2022-11-05T12:43:54.220Z,11.00
2022-11-05T12:46:29.369Z,11.10
2022-11-05T12:49:25.827Z,11.10
2022-11-05T12:52:08.965Z,11.30
2022-11-05T12:54:52.160Z,11.70
2022-11-05T12:57:22.466Z,11.70
2022-11-05T12:59:56.434Z,11.80
2022-11-05T13:02:29.742Z,12.00
2022-11-05T13:05:01.989Z,11.90
2022-11-05T13:07:37.606Z,11.70
2022-11-05T13:10:11.251Z,11.70
2022-11-05T13:12:42.205Z,11.70
2022-11-05T13:15:20.668Z,11.90
2022-11-05T13:17:52.541Z,11.80
2022-11-05T13:20:23.574Z,11.90
2022-11-05T13:22:58.068Z,11.50
2022-11-05T13:25:29.872Z,11.60
2022-11-05T13:28:04.767Z,11.40
2022-11-05T13:30:37.297Z,11.20
2022-11-05T13:33:11.532Z,11.10
2022-11-05T13:35:45.072Z,11.20
2022-11-05T13:38:38.973Z,11.20
2022-11-05T13:41:21.537Z,11.20
2022-11-05T13:44:16.245Z,11.40
2022-11-05T13:47:29.280Z,11.20
2022-11-05T13:50:30.641Z,11.20
2022-11-05T13:53:15.695Z,11.10
2022-11-05T13:56:02.556Z,11.00
2022-11-05T13:58:49.553Z,11.00
2022-11-05T14:01:41.675Z,10.90
2022-11-05T14:04:19.789Z,10.80
2022-11-05T14:06:48.039Z,10.70
2022-11-05T14:09:23.370Z,10.60
2022-11-05T14:11:54.962Z,10.60
2022-11-05T14:14:25.245Z,10.60
2022-11-05T14:16:55.509Z,10.50
2022-11-05T14:19:38.085Z,10.40
2022-11-05T14:22:36.290Z,10.40
2022-11-05T14:25:57.451Z,10.40
2022-11-05T14:28:44.708Z,10.40
2022-11-05T14:32:02.437Z,10.40
2022-11-05T14:34:40.411Z,10.40
2022-11-05T14:37:26.821Z,10.40
2022-11-05T14:39:56.508Z,10.40
2022-11-05T14:42:27.675Z,10.40
2022-11-05T14:45:04.412Z,10.30
2022-11-05T14:47:35.326Z,10.30
2022-11-05T14:50:11.528Z,10.20
2022-11-05T14:52:41.948Z,10.30
2022-11-05T14:55:28.343Z,10.20
2022-11-05T14:58:06.713Z,10.20
2022-11-05T15:00:48.580Z,10.10
2022-11-05T15:04:00.405Z,10.20
2022-11-05T15:06:36.438Z,10.10
2022-11-05T15:09:32.813Z,10.10
2022-11-05T15:12:13.398Z,10.10
2022-11-05T15:14:50.116Z,10.10
2022-11-05T15:17:29.639Z,10.10
2022-11-05T15:20:07.990Z,10.10
2022-11-05T15:22:39.225Z,10.00
2022-11-05T15:25:17.746Z,10.00
2022-11-05T15:28:04.457Z,10.00
2022-11-05T15:30:32.596Z,10.00
2022-11-05T15:33:20.348Z,9.90
2022-11-05T15:35:48.423Z,10.00
2022-11-05T15:38:35.518Z,9.90
2022-11-05T15:41:06.684Z,10.00
2022-11-05T15:43:34.753Z,10.00
2022-11-05T15:46:05.655Z,10.00
2022-11-05T15:48:36.853Z,10.00
2022-11-05T15:51:05.046Z,10.00
2022-11-05T15:54:28.502Z,9.90
2022-11-05T15:56:51.325Z,9.80
2022-11-05T15:59:21.329Z,9.80
2022-11-05T16:01:52.213Z,9.80
2022-11-05T16:04:23.707Z,9.80
2022-11-05T16:06:54.673Z,9.70
2022-11-05T16:09:24.615Z,9.80
2022-11-05T16:12:10.388Z,9.80
2022-11-05T16:14:38.500Z,9.70
2022-11-05T16:17:18.292Z,9.70
2022-11-05T16:19:48.561Z,9.60
2022-11-05T16:22:16.805Z,9.70
2022-11-05T16:24:45.885Z,9.60
2022-11-05T16:27:19.405Z,9.70
2022-11-05T16:29:51.368Z,9.70
2022-11-05T16:32:29.517Z,9.60
2022-11-05T16:35:02.051Z,9.40
2022-11-05T16:37:37.737Z,9.30
2022-11-05T16:40:14.403Z,9.20
2022-11-05T16:42:43.036Z,9.30
2022-11-05T16:45:13.982Z,9.20
2022-11-05T16:47:43.050Z,9.20
2022-11-05T16:50:17.432Z,9.00
2022-11-05T16:52:46.776Z,8.90
2022-11-05T16:55:15.664Z,8.70
2022-11-05T16:57:45.461Z,8.50
2022-11-05T17:00:17.166Z,8.30
2022-11-05T17:02:45.812Z,8.30
2022-11-05T17:05:25.025Z,8.30
2022-11-05T17:07:53.496Z,8.30
2022-11-05T17:10:23.125Z,8.20
2022-11-05T17:12:51.921Z,8.20
2022-11-05T17:15:26.544Z,8.10
2022-11-05T17:17:55.695Z,8.00
2022-11-05T17:20:38.523Z,8.00
2022-11-05T17:23:10.190Z,8.00
2022-11-05T17:25:39.098Z,7.70
2022-11-05T17:28:07.575Z,7.60
2022-11-05T17:30:35.605Z,7.50
2022-11-05T17:33:03.863Z,7.50
2022-11-05T17:35:33.448Z,7.40
2022-11-05T17:38:01.554Z,7.40
2022-11-05T17:40:30.299Z,7.40
2022-11-05T17:42:58.607Z,7.40
2022-11-05T17:45:26.719Z,7.30
2022-11-05T17:47:54.838Z,7.40
2022-11-05T17:50:22.858Z,7.40
2022-11-05T17:52:52.221Z,7.40
2022-11-05T17:55:20.471Z,7.30
2022-11-05T17:57:50.455Z,7.20
2022-11-05T18:00:20.734Z,7.30
2022-11-05T18:02:49.683Z,7.20
2022-11-05T18:05:18.196Z,7.00
2022-11-05T18:07:46.935Z,6.80
2022-11-05T18:10:17.113Z,7.00
2022-11-05T18:12:45.967Z,7.10
2022-11-05T18:15:14.872Z,7.20
2022-11-05T18:17:42.911Z,7.20
2022-11-05T18:20:18.622Z,7.00
2022-11-05T18:22:49.500Z,6.80
2022-11-05T18:25:19.863Z,6.60
2022-11-05T18:27:47.908Z,6.50
2022-11-05T18:30:16.049Z,6.30
2022-11-05T18:32:45.183Z,6.10
2022-11-05T18:35:14.534Z,6.10
2022-11-05T18:37:42.666Z,6.10
2022-11-05T18:40:11.988Z,6.20
2022-11-05T18:42:41.641Z,6.30
2022-11-05T18:45:11.477Z,6.30
2022-11-05T18:47:39.655Z,6.10
2022-11-05T18:50:09.357Z,6.00
2022-11-05T18:52:37.711Z,6.20
2022-11-05T18:55:06.767Z,6.20
2022-11-05T18:57:35.628Z,6.10
2022-11-05T19:00:05.860Z,5.90
2022-11-05T19:02:33.988Z,5.80
2022-11-05T19:07:50.244Z,5.70
2022-11-05T19:10:18.313Z,5.70
2022-11-05T19:12:46.298Z,5.50
2022-11-05T19:15:15.609Z,5.40
2022-11-05T19:17:43.762Z,5.30
2022-11-05T19:20:12.540Z,5.30
2022-11-05T19:22:40.605Z,5.20
2022-11-05T19:25:09.211Z,5.20
2022-11-05T19:27:37.613Z,5.10
2022-11-05T19:30:06.799Z,5.10
2022-11-05T19:32:36.292Z,5.10
2022-11-05T19:35:04.669Z,5.00
2022-11-05T19:37:32.706Z,5.00
2022-11-05T19:40:00.816Z,5.00
2022-11-05T19:42:28.820Z,5.10
2022-11-05T19:44:57.011Z,5.00
2022-11-05T19:47:28.435Z,4.90
2022-11-05T19:49:57.903Z,4.90
2022-11-05T19:52:25.959Z,5.10
2022-11-05T19:54:53.928Z,5.10
2022-11-05T19:57:22.102Z,5.00
2022-11-05T19:59:50.848Z,5.10
2022-11-05T20:02:19.044Z,5.10
2022-11-05T20:04:47.216Z,5.30
2022-11-05T20:07:16.573Z,5.40
2022-11-05T20:09:44.725Z,5.50
2022-11-05T20:12:12.812Z,5.50
2022-11-05T20:14:40.884Z,5.50
2022-11-05T20:17:08.921Z,5.40
2022-11-05T20:19:37.053Z,5.50
2022-11-05T20:22:05.205Z,5.50
2022-11-05T20:24:34.684Z,5.30
2022-11-05T20:27:02.865Z,5.20
2022-11-05T20:29:35.261Z,5.10
2022-11-05T20:32:04.720Z,5.10
2022-11-05T20:34:34.229Z,5.10
2022-11-05T20:37:02.550Z,5.10
2022-11-05T20:39:30.829Z,5.10
2022-11-05T20:42:00.834Z,5.10
2022-11-05T20:44:29.018Z,5.10
2022-11-05T20:46:57.193Z,5.00
2022-11-05T20:49:25.962Z,5.00
2022-11-05T20:51:54.507Z,5.00
2022-11-05T20:54:22.710Z,5.00
2022-11-05T20:56:50.859Z,5.00
2022-11-05T20:59:20.573Z,5.00
2022-11-05T21:01:48.800Z,5.10
2022-11-05T21:04:17.020Z,5.10
2022-11-05T21:06:45.128Z,5.10
2022-11-05T21:09:13.727Z,5.10
2022-11-05T21:11:59.387Z,5.10
2022-11-05T21:14:28.949Z,5.10
2022-11-05T21:16:57.104Z,5.00
2022-11-05T21:19:25.170Z,5.00
2022-11-05T21:21:53.370Z,5.00
2022-11-05T21:24:21.628Z,5.00
2022-11-05T21:26:50.240Z,4.90
2022-11-05T21:29:19.299Z,4.80
2022-11-05T21:31:48.981Z,4.70
2022-11-05T21:34:18.012Z,4.60
2022-11-05T21:36:47.103Z,4.60
2022-11-05T21:39:15.352Z,4.70
2022-11-05T21:41:43.570Z,4.70
2022-11-05T21:44:11.787Z,4.70
2022-11-05T21:46:39.889Z,4.80
2022-11-05T21:49:09.408Z,4.70
2022-11-05T21:51:55.022Z,4.70
2022-11-05T21:54:40.435Z,4.90
2022-11-05T21:57:31.737Z,4.90
2022-11-05T22:00:00.599Z,4.90
2022-11-05T22:02:29.512Z,4.80
2022-11-05T22:05:00.151Z,4.80
2022-11-05T22:07:30.480Z,4.80
2022-11-05T22:09:58.743Z,4.80
2022-11-05T22:12:27.254Z,4.70
2022-11-05T22:14:56.124Z,4.80
2022-11-05T22:17:24.828Z,4.70
2022-11-05T22:19:53.049Z,4.70
2022-11-05T22:22:22.786Z,4.80
2022-11-05T22:24:50.802Z,5.10
2022-11-05T22:27:21.905Z,5.10
2022-11-05T22:29:50.366Z,5.30
2022-11-05T22:32:18.614Z,5.60
2022-11-05T22:34:48.230Z,5.50
2022-11-05T22:37:16.302Z,5.30
2022-11-05T22:39:45.641Z,5.20
2022-11-05T22:42:13.710Z,5.10
2022-11-05T22:44:41.803Z,5.00
2022-11-05T22:47:09.798Z,4.90
2022-11-05T22:49:37.981Z,4.90
2022-11-05T22:52:06.595Z,5.00
2022-11-05T22:54:39.043Z,5.00
2022-11-05T22:57:09.022Z,4.90
2022-11-05T22:59:37.017Z,4.80
2022-11-05T23:02:09.585Z,4.80
2022-11-05T23:04:38.969Z,4.80
2022-11-05T23:07:27.942Z,4.80
2022-11-05T23:10:14.080Z,4.80
2022-11-05T23:12:44.486Z,4.70
2022-11-05T23:15:34.224Z,4.70
2022-11-05T23:18:19.983Z,4.70
2022-11-05T23:21:05.902Z,4.90
2022-11-05T23:23:51.376Z,4.90
2022-11-05T23:26:36.972Z,5.00
2022-11-05T23:29:06.459Z,4.90
2022-11-05T23:31:51.803Z,4.90
2022-11-05T23:34:19.813Z,4.80
2022-11-05T23:37:05.123Z,4.80
2022-11-05T23:39:36.839Z,4.70
2022-11-05T23:42:25.208Z,4.90
2022-11-05T23:45:14.555Z,5.00
2022-11-05T23:48:00.471Z,5.20
2022-11-05T23:50:28.847Z,5.20
2022-11-05T23:52:56.953Z,5.20
2022-11-05T23:55:25.319Z,5.20
2022-11-05T23:57:54.029Z,5.20
